createdAt,value
2019-03-27T00:00:59.282Z,0.00
2019-03-27T00:01:59.268Z,0.00
2019-03-27T00:02:59.255Z,0.00
2019-03-27T00:03:59.247Z,0.00
2019-03-27T00:04:59.258Z,0.00
2019-03-27T00:05:59.224Z,0.00
2019-03-27T00:06:59.216Z,0.00
2019-03-27T00:07:59.199Z,0.00
2019-03-27T00:08:59.189Z,0.00
2019-03-27T00:09:59.205Z,0.00
2019-03-27T00:10:59.189Z,0.00
2019-03-27T00:11:59.156Z,0.00
2019-03-27T00:12:59.144Z,0.00
2019-03-27T00:13:59.161Z,0.00
2019-03-27T00:15:12.213Z,0.00
2019-03-27T00:16:00.109Z,0.00
2019-03-27T00:16:59.101Z,0.00
2019-03-27T00:17:59.113Z,0.00
2019-03-27T00:18:59.077Z,0.00
2019-03-27T00:19:59.067Z,0.00
2019-03-27T00:20:59.077Z,0.00
2019-03-27T00:21:59.058Z,0.00
2019-03-27T00:22:59.032Z,0.00
2019-03-27T00:23:59.023Z,0.00
2019-03-27T00:24:59.014Z,0.00
2019-03-27T00:25:59.021Z,0.00
2019-03-27T00:26:58.987Z,0.00
2019-03-27T00:27:58.977Z,0.00
2019-03-27T00:28:58.966Z,0.00
2019-03-27T00:29:58.980Z,0.00
2019-03-27T00:30:58.996Z,0.00
2019-03-27T00:31:58.932Z,0.00
2019-03-27T00:32:58.923Z,0.00
2019-03-27T00:33:58.910Z,0.00
2019-03-27T00:34:58.927Z,0.00
2019-03-27T00:35:58.902Z,0.00
2019-03-27T00:36:58.878Z,0.00
2019-03-27T00:37:58.864Z,0.00
2019-03-27T00:38:58.875Z,0.00
2019-03-27T00:39:58.842Z,0.00
2019-03-27T00:40:58.835Z,0.00
2019-03-27T00:41:58.846Z,0.00
2019-03-27T00:42:58.810Z,0.00
2019-03-27T00:43:58.802Z,0.00
2019-03-27T00:44:58.805Z,0.00
2019-03-27T00:45:58.796Z,0.00
2019-03-27T00:46:58.763Z,0.00
2019-03-27T00:47:58.775Z,0.00
2019-03-27T00:48:58.741Z,0.00
2019-03-27T00:49:58.731Z,0.00
2019-03-27T00:50:58.719Z,0.00
2019-03-27T00:51:58.709Z,0.00
2019-03-27T00:52:58.721Z,0.00
2019-03-27T00:53:58.685Z,0.00
2019-03-27T00:54:58.675Z,0.00
2019-03-27T00:55:58.662Z,0.00
2019-03-27T00:56:58.666Z,0.00
2019-03-27T00:57:58.686Z,0.00
2019-03-27T00:58:58.629Z,0.00
2019-03-27T00:59:58.618Z,0.00
2019-03-27T01:00:58.610Z,0.00
2019-03-27T01:01:58.594Z,0.00
2019-03-27T01:02:58.599Z,0.00
2019-03-27T01:03:58.580Z,0.00
2019-03-27T01:04:58.565Z,0.00
2019-03-27T01:05:58.549Z,0.00
2019-03-27T01:06:58.565Z,0.00
2019-03-27T01:07:58.575Z,0.00
2019-03-27T01:08:58.515Z,0.00
2019-03-27T01:09:58.502Z,0.00
2019-03-27T01:10:58.523Z,0.00
2019-03-27T01:11:58.486Z,0.00
2019-03-27T01:12:58.504Z,0.00
2019-03-27T01:13:58.472Z,0.00
2019-03-27T01:14:58.452Z,0.00
2019-03-27T01:15:58.467Z,0.00
2019-03-27T01:16:58.428Z,0.00
2019-03-27T01:17:58.418Z,0.00
2019-03-27T01:18:58.428Z,0.00
2019-03-27T01:19:58.391Z,0.00
2019-03-27T01:20:58.381Z,0.00
2019-03-27T01:21:58.372Z,0.00
2019-03-27T01:22:58.360Z,0.00
2019-03-27T01:23:58.366Z,0.00
2019-03-27T01:24:58.335Z,0.00
2019-03-27T01:25:58.362Z,0.00
2019-03-27T01:26:58.314Z,0.00
2019-03-27T01:27:58.306Z,0.00
2019-03-27T01:28:58.310Z,0.00
2019-03-27T01:29:58.306Z,0.00
2019-03-27T01:30:58.297Z,0.00
2019-03-27T01:31:58.262Z,0.00
2019-03-27T01:32:58.251Z,0.00
2019-03-27T01:33:58.240Z,0.00
2019-03-27T01:34:58.231Z,0.00
2019-03-27T01:35:58.299Z,0.00
2019-03-27T01:36:58.201Z,0.00
2019-03-27T01:37:58.189Z,0.00
2019-03-27T01:38:58.179Z,0.00
2019-03-27T01:39:58.174Z,0.00
2019-03-27T01:40:58.181Z,0.00
2019-03-27T01:41:58.163Z,0.00
2019-03-27T01:42:58.135Z,0.00
2019-03-27T01:43:58.124Z,0.00
2019-03-27T01:44:58.138Z,0.00
2019-03-27T01:45:58.142Z,0.00
2019-03-27T01:46:58.092Z,0.00
2019-03-27T01:47:58.095Z,0.00
2019-03-27T01:48:58.074Z,0.00
2019-03-27T01:49:58.058Z,0.00
2019-03-27T01:50:58.079Z,0.00
2019-03-27T01:51:58.037Z,0.00
2019-03-27T01:52:58.023Z,0.00
2019-03-27T01:53:58.024Z,0.00
2019-03-27T01:54:58.002Z,0.00
2019-03-27T01:55:58.021Z,0.00
2019-03-27T01:56:58.018Z,0.00
2019-03-27T01:57:57.975Z,0.00
2019-03-27T01:58:57.959Z,0.00
2019-03-27T01:59:57.946Z,0.00
2019-03-27T02:00:57.939Z,0.00
2019-03-27T02:01:57.951Z,0.00
2019-03-27T02:02:57.913Z,0.00
2019-03-27T02:03:57.901Z,0.00
2019-03-27T02:04:57.898Z,0.00
2019-03-27T02:05:57.898Z,0.00
2019-03-27T02:06:57.871Z,0.00
2019-03-27T02:07:57.888Z,0.00
2019-03-27T02:08:57.920Z,0.00
2019-03-27T02:09:57.833Z,0.00
2019-03-27T02:10:57.823Z,0.00
2019-03-27T02:11:57.812Z,0.00
2019-03-27T02:12:57.825Z,0.00
2019-03-27T02:13:57.791Z,0.00
2019-03-27T02:14:57.777Z,0.00
2019-03-27T02:16:06.780Z,0.00
2019-03-27T02:16:58.756Z,0.00
2019-03-27T02:17:57.768Z,0.00
2019-03-27T02:18:57.738Z,0.00
2019-03-27T02:19:57.722Z,0.00
2019-03-27T02:20:57.711Z,0.00
2019-03-27T02:21:57.708Z,0.00
2019-03-27T02:22:57.715Z,0.00
2019-03-27T02:23:57.676Z,0.00
2019-03-27T02:24:57.666Z,0.00
2019-03-27T02:25:57.659Z,0.00
2019-03-27T02:26:57.657Z,0.00
2019-03-27T02:27:57.665Z,0.00
2019-03-27T02:28:57.625Z,0.00
2019-03-27T02:29:57.609Z,0.00
2019-03-27T02:30:57.600Z,0.00
2019-03-27T02:31:57.587Z,0.00
2019-03-27T02:32:57.606Z,0.00
2019-03-27T02:33:57.577Z,0.00
2019-03-27T02:34:57.562Z,0.00
2019-03-27T02:35:57.556Z,0.00
2019-03-27T02:36:57.531Z,0.00
2019-03-27T02:37:57.559Z,0.00
2019-03-27T02:38:57.536Z,0.00
2019-03-27T02:39:57.507Z,0.00
2019-03-27T02:40:57.490Z,0.00
2019-03-27T02:41:57.477Z,0.00
2019-03-27T02:42:57.464Z,0.00
2019-03-27T02:43:57.487Z,0.00
2019-03-27T02:44:57.442Z,0.00
2019-03-27T02:45:57.434Z,0.00
2019-03-27T02:46:57.420Z,0.00
2019-03-27T02:47:57.413Z,0.00
2019-03-27T02:48:57.447Z,0.00
2019-03-27T02:49:57.407Z,0.00
2019-03-27T02:50:57.383Z,0.00
2019-03-27T02:51:57.364Z,0.00
2019-03-27T02:52:57.353Z,0.00
2019-03-27T02:53:57.374Z,0.00
2019-03-27T02:54:57.330Z,0.00
2019-03-27T02:55:57.365Z,0.00
2019-03-27T02:56:57.317Z,0.00
2019-03-27T02:57:57.298Z,0.00
2019-03-27T02:58:57.328Z,0.00
2019-03-27T02:59:57.275Z,0.00
2019-03-27T03:00:57.262Z,0.00
2019-03-27T03:01:57.250Z,0.00
2019-03-27T03:02:57.298Z,0.00
2019-03-27T03:03:57.410Z,0.00
2019-03-27T03:04:57.218Z,0.00
2019-03-27T03:05:57.231Z,0.00
2019-03-27T03:06:57.198Z,0.00
2019-03-27T03:07:57.197Z,0.00
2019-03-27T03:08:57.178Z,0.00
2019-03-27T03:09:57.261Z,0.00
2019-03-27T03:10:57.151Z,0.00
2019-03-27T03:11:57.146Z,0.00
2019-03-27T03:12:57.128Z,0.00
2019-03-27T03:13:57.116Z,0.00
2019-03-27T03:14:57.143Z,0.00
2019-03-27T03:15:57.096Z,0.00
2019-03-27T03:16:57.083Z,0.00
2019-03-27T03:17:57.071Z,0.00
2019-03-27T03:18:57.061Z,0.00
2019-03-27T03:19:57.077Z,0.00
2019-03-27T03:20:57.041Z,0.00
2019-03-27T03:21:57.038Z,0.00
2019-03-27T03:22:57.038Z,0.00
2019-03-27T03:23:57.003Z,0.00
2019-03-27T03:24:57.064Z,0.00
2019-03-27T03:25:56.991Z,0.00
2019-03-27T03:26:56.972Z,0.00
2019-03-27T03:27:56.981Z,0.00
2019-03-27T03:28:56.950Z,0.00
2019-03-27T03:29:56.939Z,0.00
2019-03-27T03:30:56.930Z,0.00
2019-03-27T03:31:56.949Z,0.00
2019-03-27T03:32:56.906Z,0.00
2019-03-27T03:33:56.892Z,0.00
2019-03-27T03:34:56.898Z,0.00
2019-03-27T03:35:56.868Z,0.00
2019-03-27T03:36:56.893Z,0.00
2019-03-27T03:37:56.846Z,0.00
2019-03-27T03:38:57.733Z,0.00
2019-03-27T03:39:56.824Z,0.00
2019-03-27T03:40:56.812Z,0.00
2019-03-27T03:41:56.826Z,0.00
2019-03-27T03:42:56.799Z,0.00
2019-03-27T03:43:56.781Z,0.00
2019-03-27T03:44:56.772Z,0.00
2019-03-27T03:45:56.783Z,0.00
2019-03-27T03:47:00.005Z,0.00
2019-03-27T03:47:56.773Z,0.00
2019-03-27T03:48:56.729Z,0.00
2019-03-27T03:49:56.716Z,0.00
2019-03-27T03:50:56.706Z,0.00
2019-03-27T03:51:56.694Z,0.00
2019-03-27T03:52:56.701Z,0.00
2019-03-27T03:53:56.697Z,0.00
2019-03-27T03:54:56.657Z,0.00
2019-03-27T03:55:56.671Z,0.00
2019-03-27T03:56:56.632Z,0.00
2019-03-27T03:57:56.635Z,0.00
2019-03-27T03:58:56.637Z,0.00
2019-03-27T03:59:56.599Z,0.00
2019-03-27T04:00:56.590Z,0.00
2019-03-27T04:01:56.613Z,0.00
2019-03-27T04:02:56.566Z,0.00
2019-03-27T04:03:56.607Z,0.00
2019-03-27T04:04:56.544Z,0.00
2019-03-27T04:05:56.535Z,0.00
2019-03-27T04:06:56.545Z,0.00
2019-03-27T04:07:56.518Z,0.00
2019-03-27T04:08:56.515Z,0.00
2019-03-27T04:09:56.511Z,0.00
2019-03-27T04:10:56.479Z,0.00
2019-03-27T04:11:56.486Z,0.00
2019-03-27T04:12:56.459Z,0.00
2019-03-27T04:13:56.441Z,0.00
2019-03-27T04:14:56.436Z,0.00
2019-03-27T04:15:56.451Z,0.00
2019-03-27T04:16:56.410Z,0.00
2019-03-27T04:17:56.401Z,0.00
2019-03-27T04:18:56.390Z,0.00
2019-03-27T04:19:56.378Z,0.00
2019-03-27T04:20:56.398Z,0.00
2019-03-27T04:21:56.353Z,0.00
2019-03-27T04:22:56.345Z,0.00
2019-03-27T04:23:56.335Z,0.00
2019-03-27T04:24:56.342Z,0.00
2019-03-27T04:26:09.060Z,0.00
2019-03-27T04:26:57.299Z,0.00
2019-03-27T04:27:56.289Z,0.00
2019-03-27T04:28:56.302Z,0.00
2019-03-27T04:29:56.265Z,0.00
2019-03-27T04:30:56.255Z,0.00
2019-03-27T04:31:56.267Z,0.00
2019-03-27T04:32:56.232Z,0.00
2019-03-27T04:33:56.219Z,0.00
2019-03-27T04:34:56.223Z,0.00
2019-03-27T04:35:56.197Z,0.00
2019-03-27T04:36:56.210Z,0.00
2019-03-27T04:37:56.177Z,0.00
2019-03-27T04:38:56.162Z,4.00
2019-03-27T04:39:56.151Z,0.00
2019-03-27T04:40:56.142Z,0.00
2019-03-27T04:41:56.167Z,4.00
2019-03-27T04:42:56.121Z,0.00
2019-03-27T04:43:56.106Z,4.00
2019-03-27T04:44:56.097Z,4.00
2019-03-27T04:45:56.083Z,4.00
2019-03-27T04:46:56.100Z,4.00
2019-03-27T04:47:56.077Z,4.00
2019-03-27T04:48:56.070Z,4.00
2019-03-27T04:49:56.066Z,8.00
2019-03-27T04:50:56.038Z,12.00
2019-03-27T04:51:56.019Z,12.00
2019-03-27T04:52:56.048Z,12.00
2019-03-27T04:53:55.995Z,12.00
2019-03-27T04:54:56.006Z,12.00
2019-03-27T04:55:55.982Z,16.00
2019-03-27T04:56:55.965Z,20.00
2019-03-27T04:57:55.953Z,24.00
2019-03-27T04:58:55.941Z,28.00
2019-03-27T04:59:55.951Z,28.00
2019-03-27T05:00:55.920Z,32.00
2019-03-27T05:01:55.917Z,32.00
2019-03-27T05:02:55.906Z,40.00
2019-03-27T05:03:55.889Z,40.00
2019-03-27T05:04:55.924Z,48.00
2019-03-27T05:05:55.881Z,52.00
2019-03-27T05:06:55.854Z,60.00
2019-03-27T05:07:55.842Z,56.00
2019-03-27T05:08:55.873Z,64.00
2019-03-27T05:09:55.816Z,72.00
2019-03-27T05:10:55.807Z,76.00
2019-03-27T05:11:55.807Z,88.00
2019-03-27T05:12:55.815Z,100.00
2019-03-27T05:13:55.777Z,104.00
2019-03-27T05:14:55.784Z,112.00
2019-03-27T05:15:55.748Z,124.00
2019-03-27T05:16:55.740Z,132.00
2019-03-27T05:17:55.750Z,140.00
2019-03-27T05:18:55.729Z,148.00
2019-03-27T05:19:55.729Z,152.00
2019-03-27T05:20:55.695Z,156.00
2019-03-27T05:21:55.698Z,160.00
2019-03-27T05:22:55.700Z,156.00
2019-03-27T05:23:55.666Z,156.00
2019-03-27T05:24:55.660Z,164.00
2019-03-27T05:25:55.656Z,176.00
2019-03-27T05:26:55.647Z,184.00
2019-03-27T05:27:55.727Z,184.00
2019-03-27T05:28:55.640Z,188.00
2019-03-27T05:29:55.593Z,188.00
2019-03-27T05:30:55.586Z,176.00
2019-03-27T05:31:55.569Z,168.00
2019-03-27T05:32:55.594Z,168.00
2019-03-27T05:33:55.578Z,180.00
2019-03-27T05:34:55.567Z,184.00
2019-03-27T05:35:55.527Z,188.00
2019-03-27T05:36:55.514Z,200.00
2019-03-27T05:37:55.507Z,208.00
2019-03-27T05:38:55.591Z,212.00
2019-03-27T05:39:55.482Z,220.00
2019-03-27T05:40:55.586Z,240.00
2019-03-27T05:41:55.461Z,260.00
2019-03-27T05:43:01.047Z,280.00
2019-03-27T05:43:56.467Z,308.00
2019-03-27T05:44:55.436Z,328.00
2019-03-27T05:45:55.420Z,336.00
2019-03-27T05:46:55.557Z,340.00
2019-03-27T05:47:59.945Z,348.00
2019-03-27T05:48:55.389Z,364.00
2019-03-27T05:49:55.398Z,388.00
2019-03-27T05:50:55.384Z,408.00
2019-03-27T05:51:55.374Z,420.00
2019-03-27T05:52:55.332Z,428.00
2019-03-27T05:53:55.324Z,444.00
2019-03-27T05:54:55.337Z,468.00
2019-03-27T05:55:55.375Z,508.00
2019-03-27T05:56:55.287Z,548.00
2019-03-27T05:57:55.277Z,584.00
2019-03-27T05:58:55.266Z,612.00
2019-03-27T05:59:55.272Z,684.00
2019-03-27T06:00:55.248Z,740.00
2019-03-27T06:01:55.257Z,772.00
2019-03-27T06:02:55.222Z,772.00
2019-03-27T06:03:55.221Z,756.00
2019-03-27T06:04:55.198Z,748.00
2019-03-27T06:05:55.190Z,756.00
2019-03-27T06:06:55.211Z,752.00
2019-03-27T06:07:55.169Z,772.00
2019-03-27T06:08:55.153Z,804.00
2019-03-27T06:09:55.166Z,832.00
2019-03-27T06:10:55.137Z,820.00
2019-03-27T06:11:55.120Z,840.00
2019-03-27T06:12:55.170Z,864.00
2019-03-27T06:13:55.099Z,884.00
2019-03-27T06:14:55.128Z,948.00
2019-03-27T06:15:55.080Z,992.00
2019-03-27T06:16:55.097Z,1032.00
2019-03-27T06:17:55.057Z,1032.00
2019-03-27T06:18:55.053Z,1044.00
2019-03-27T06:19:55.067Z,1116.00
2019-03-27T06:20:55.118Z,1180.00
2019-03-27T06:21:55.023Z,1172.00
2019-03-27T06:22:54.996Z,1180.00
2019-03-27T06:23:54.984Z,1188.00
2019-03-27T06:24:55.011Z,1188.00
2019-03-27T06:25:54.974Z,1168.00
2019-03-27T06:26:54.953Z,1192.00
2019-03-27T06:27:55.028Z,1252.00
2019-03-27T06:28:54.929Z,1284.00
2019-03-27T06:29:54.917Z,1312.00
2019-03-27T06:30:54.908Z,1328.00
2019-03-27T06:31:54.899Z,1332.00
2019-03-27T06:32:54.920Z,1288.00
2019-03-27T06:33:54.897Z,1244.00
2019-03-27T06:34:54.866Z,1224.00
2019-03-27T06:35:54.856Z,1188.00
2019-03-27T06:36:54.840Z,1152.00
2019-03-27T06:37:54.860Z,1168.00
2019-03-27T06:38:54.820Z,1196.00
2019-03-27T06:39:54.812Z,1252.00
2019-03-27T06:40:54.835Z,1312.00
2019-03-27T06:41:54.797Z,1348.00
2019-03-27T06:42:54.798Z,1416.00
2019-03-27T06:43:54.767Z,1520.00
2019-03-27T06:44:54.754Z,1576.00
2019-03-27T06:45:54.764Z,1528.00
2019-03-27T06:46:54.733Z,1456.00
2019-03-27T06:47:54.724Z,1464.00
2019-03-27T06:48:54.715Z,1548.00
2019-03-27T06:49:54.705Z,1612.00
2019-03-27T06:50:54.720Z,1600.00
2019-03-27T06:51:54.675Z,1644.00
2019-03-27T06:52:54.664Z,1744.00
2019-03-27T06:53:54.651Z,1720.00
2019-03-27T06:54:54.637Z,1796.00
2019-03-27T06:55:54.653Z,1932.00
2019-03-27T06:56:54.624Z,1936.00
2019-03-27T06:57:54.606Z,1952.00
2019-03-27T06:58:55.163Z,1984.00
2019-03-27T06:59:54.583Z,1972.00
2019-03-27T07:00:54.605Z,1968.00
2019-03-27T07:01:54.561Z,2024.00
2019-03-27T07:02:54.645Z,2024.00
2019-03-27T07:03:54.549Z,1996.00
2019-03-27T07:04:54.528Z,2076.00
2019-03-27T07:05:54.547Z,2144.00
2019-03-27T07:06:54.506Z,2116.00
2019-03-27T07:07:54.523Z,2108.00
2019-03-27T07:08:54.497Z,2256.00
2019-03-27T07:09:54.475Z,2412.00
2019-03-27T07:10:54.489Z,2424.00
2019-03-27T07:11:54.448Z,2392.00
2019-03-27T07:12:54.457Z,2376.00
2019-03-27T07:13:54.457Z,2452.00
2019-03-27T07:14:54.419Z,2652.00
2019-03-27T07:15:54.406Z,2736.00
2019-03-27T07:16:54.393Z,2732.00
2019-03-27T07:17:54.382Z,2832.00
2019-03-27T07:18:54.395Z,2900.00
2019-03-27T07:19:54.368Z,2956.00
2019-03-27T07:20:54.354Z,3036.00
2019-03-27T07:21:54.345Z,3136.00
2019-03-27T07:22:54.354Z,3140.00
2019-03-27T07:23:54.321Z,3104.00
2019-03-27T07:24:54.308Z,3116.00
2019-03-27T07:25:54.298Z,3160.00
2019-03-27T07:26:54.318Z,3232.00
2019-03-27T07:27:54.279Z,3368.00
2019-03-27T07:28:54.263Z,3412.00
2019-03-27T07:29:54.248Z,3376.00
2019-03-27T07:30:54.249Z,3332.00
2019-03-27T07:31:54.257Z,3340.00
2019-03-27T07:32:54.220Z,3404.00
2019-03-27T07:33:54.205Z,3408.00
2019-03-27T07:34:54.196Z,3464.00
2019-03-27T07:35:54.208Z,3588.00
2019-03-27T07:36:56.225Z,3688.00
2019-03-27T07:37:54.185Z,3760.00
2019-03-27T07:38:54.158Z,3788.00
2019-03-27T07:39:54.168Z,3732.00
2019-03-27T07:40:54.125Z,3704.00
2019-03-27T07:41:54.132Z,3716.00
2019-03-27T07:42:54.114Z,3720.00
2019-03-27T07:43:54.088Z,3772.00
2019-03-27T07:44:54.103Z,3792.00
2019-03-27T07:45:54.102Z,3756.00
2019-03-27T07:46:54.058Z,3740.00
2019-03-27T07:47:54.075Z,3808.00
2019-03-27T07:48:54.513Z,3924.00
2019-03-27T07:49:54.026Z,4000.00
2019-03-27T07:50:54.074Z,3976.00
2019-03-27T07:51:54.001Z,3888.00
2019-03-27T07:52:53.991Z,3840.00
2019-03-27T07:53:54.003Z,3792.00
2019-03-27T07:54:53.972Z,3744.00
2019-03-27T07:55:53.976Z,3660.00
2019-03-27T07:56:53.947Z,3560.00
2019-03-27T07:57:54.005Z,3480.00
2019-03-27T07:58:53.929Z,3500.00
2019-03-27T07:59:53.922Z,3664.00
2019-03-27T08:00:53.904Z,3820.00
2019-03-27T08:01:53.953Z,3948.00
2019-03-27T08:02:53.881Z,3996.00
2019-03-27T08:03:53.884Z,4044.00
2019-03-27T08:04:53.917Z,4100.00
2019-03-27T08:05:53.847Z,4140.00
2019-03-27T08:06:53.885Z,4104.00
2019-03-27T08:07:53.823Z,4088.00
2019-03-27T08:08:53.810Z,4092.00
2019-03-27T08:09:53.802Z,4100.00
2019-03-27T08:10:53.801Z,4068.00
2019-03-27T08:11:53.825Z,4104.00
2019-03-27T08:12:53.760Z,4084.00
2019-03-27T08:13:53.751Z,4096.00
2019-03-27T08:14:53.738Z,4148.00
2019-03-27T08:15:53.728Z,4144.00
2019-03-27T08:16:53.743Z,4044.00
2019-03-27T08:17:53.713Z,4104.00
2019-03-27T08:19:06.578Z,4088.00
2019-03-27T08:19:54.756Z,4028.00
2019-03-27T08:20:53.675Z,4216.00
2019-03-27T08:21:53.663Z,4228.00
2019-03-27T08:22:53.696Z,4200.00
2019-03-27T08:23:53.637Z,4148.00
2019-03-27T08:24:53.654Z,4180.00
2019-03-27T08:25:53.668Z,4136.00
2019-03-27T08:26:53.633Z,4212.00
2019-03-27T08:27:53.596Z,4224.00
2019-03-27T08:28:53.614Z,4256.00
2019-03-27T08:29:53.572Z,4344.00
2019-03-27T08:30:53.567Z,4256.00
2019-03-27T08:31:53.552Z,4260.00
2019-03-27T08:32:53.543Z,4604.00
2019-03-27T08:33:53.546Z,4864.00
2019-03-27T08:34:53.535Z,4928.00
2019-03-27T08:35:53.518Z,4836.00
2019-03-27T08:36:53.498Z,4556.00
2019-03-27T08:37:53.481Z,4496.00
2019-03-27T08:38:53.492Z,4728.00
2019-03-27T08:39:53.485Z,4548.00
2019-03-27T08:40:53.454Z,4456.00
2019-03-27T08:41:53.444Z,4700.00
2019-03-27T08:42:53.453Z,4960.00
2019-03-27T08:43:53.446Z,4912.00
2019-03-27T08:44:53.401Z,5396.00
2019-03-27T08:45:53.427Z,4572.00
2019-03-27T08:46:53.382Z,4400.00
2019-03-27T08:47:53.368Z,4440.00
2019-03-27T08:48:53.368Z,4516.00
2019-03-27T08:49:53.351Z,4440.00
2019-03-27T08:50:53.352Z,4476.00
2019-03-27T08:51:53.342Z,4572.00
2019-03-27T08:52:53.348Z,4548.00
2019-03-27T08:53:53.315Z,5012.00
2019-03-27T08:54:53.287Z,5020.00
2019-03-27T08:55:53.307Z,5636.00
2019-03-27T08:56:53.278Z,5532.00
2019-03-27T08:57:53.259Z,5772.00
2019-03-27T08:58:53.323Z,5676.00
2019-03-27T08:59:53.254Z,5624.00
2019-03-27T09:00:53.250Z,5600.00
2019-03-27T09:01:53.222Z,5608.00
2019-03-27T09:02:53.197Z,5660.00
2019-03-27T09:03:53.186Z,5696.00
2019-03-27T09:04:53.178Z,5668.00
2019-03-27T09:05:53.196Z,5884.00
2019-03-27T09:06:53.156Z,5688.00
2019-03-27T09:07:53.151Z,5692.00
2019-03-27T09:08:53.134Z,5688.00
2019-03-27T09:09:53.121Z,5656.00
2019-03-27T09:10:53.139Z,5576.00
2019-03-27T09:11:53.099Z,5568.00
2019-03-27T09:12:53.085Z,5568.00
2019-03-27T09:13:53.083Z,5508.00
2019-03-27T09:14:53.088Z,5548.00
2019-03-27T09:15:53.080Z,5536.00
2019-03-27T09:16:53.041Z,5636.00
2019-03-27T09:17:53.051Z,5616.00
2019-03-27T09:18:53.019Z,5852.00
2019-03-27T09:19:53.038Z,5564.00
2019-03-27T09:20:53.009Z,5592.00
2019-03-27T09:21:52.998Z,5704.00
2019-03-27T09:22:52.970Z,5796.00
2019-03-27T09:23:52.981Z,5956.00
2019-03-27T09:24:52.964Z,6168.00
2019-03-27T09:25:52.940Z,6164.00
2019-03-27T09:26:52.931Z,6128.00
2019-03-27T09:27:52.920Z,6076.00
2019-03-27T09:28:52.930Z,5876.00
2019-03-27T09:29:52.905Z,5840.00
2019-03-27T09:30:52.895Z,5820.00
2019-03-27T09:31:52.870Z,5880.00
2019-03-27T09:32:52.891Z,6036.00
2019-03-27T09:33:52.876Z,6292.00
2019-03-27T09:34:52.869Z,6444.00
2019-03-27T09:35:52.971Z,6624.00
2019-03-27T09:36:52.843Z,6816.00
2019-03-27T09:37:52.834Z,6400.00
2019-03-27T09:38:52.811Z,6252.00
2019-03-27T09:39:52.783Z,6204.00
2019-03-27T09:40:52.771Z,6332.00
2019-03-27T09:41:52.783Z,6496.00
2019-03-27T09:42:52.753Z,6784.00
2019-03-27T09:43:52.740Z,7244.00
2019-03-27T09:44:52.758Z,6624.00
2019-03-27T09:45:52.716Z,6696.00
2019-03-27T09:46:52.745Z,6288.00
2019-03-27T09:47:52.695Z,6220.00
2019-03-27T09:48:52.694Z,6184.00
2019-03-27T09:49:52.684Z,6104.00
2019-03-27T09:50:52.658Z,6284.00
2019-03-27T09:51:52.727Z,6396.00
2019-03-27T09:52:52.674Z,6552.00
2019-03-27T09:53:53.331Z,7352.00
2019-03-27T09:54:52.616Z,8400.00
2019-03-27T09:55:52.605Z,7044.00
2019-03-27T09:56:52.606Z,7012.00
2019-03-27T09:57:52.604Z,7508.00
2019-03-27T09:58:52.569Z,7000.00
2019-03-27T09:59:52.595Z,6948.00
2019-03-27T10:00:52.550Z,7736.00
2019-03-27T10:01:52.535Z,6452.00
2019-03-27T10:02:52.526Z,5824.00
2019-03-27T10:03:52.522Z,5848.00
2019-03-27T10:04:55.791Z,6876.00
2019-03-27T10:05:52.556Z,8072.00
2019-03-27T10:06:52.477Z,6816.00
2019-03-27T10:07:52.475Z,6528.00
2019-03-27T10:08:52.455Z,7128.00
2019-03-27T10:09:52.468Z,6648.00
2019-03-27T10:10:52.459Z,6624.00
2019-03-27T10:11:52.422Z,7048.00
2019-03-27T10:12:52.418Z,8448.00
2019-03-27T10:13:52.466Z,7004.00
2019-03-27T10:14:52.440Z,6640.00
2019-03-27T10:15:52.401Z,5324.00
2019-03-27T10:16:52.369Z,5256.00
2019-03-27T10:17:52.353Z,5676.00
2019-03-27T10:18:52.344Z,7044.00
2019-03-27T10:20:02.777Z,5500.00
2019-03-27T10:20:53.342Z,4872.00
2019-03-27T10:21:52.311Z,4712.00
2019-03-27T10:22:52.304Z,5192.00
2019-03-27T10:23:52.300Z,5936.00
2019-03-27T10:24:52.312Z,4884.00
2019-03-27T10:25:52.296Z,6996.00
2019-03-27T10:26:52.256Z,4776.00
2019-03-27T10:27:52.252Z,5856.00
2019-03-27T10:28:52.231Z,4768.00
2019-03-27T10:29:52.244Z,4752.00
2019-03-27T10:30:52.209Z,5028.00
2019-03-27T10:31:52.227Z,5076.00
2019-03-27T10:32:52.211Z,5172.00
2019-03-27T10:33:52.203Z,6372.00
2019-03-27T10:34:52.169Z,4856.00
2019-03-27T10:35:52.152Z,5060.00
2019-03-27T10:36:52.137Z,5544.00
2019-03-27T10:37:52.164Z,8360.00
2019-03-27T10:38:52.115Z,7016.00
2019-03-27T10:39:52.164Z,8388.00
2019-03-27T10:40:52.097Z,7064.00
2019-03-27T10:41:52.084Z,7940.00
2019-03-27T10:42:52.104Z,8024.00
2019-03-27T10:43:52.079Z,7616.00
2019-03-27T10:44:52.049Z,7416.00
2019-03-27T10:45:52.047Z,7436.00
2019-03-27T10:46:52.027Z,7372.00
2019-03-27T10:47:52.061Z,6964.00
2019-03-27T10:48:53.140Z,6892.00
2019-03-27T10:49:52.056Z,6968.00
2019-03-27T10:50:51.979Z,7100.00
2019-03-27T10:51:51.969Z,4388.00
2019-03-27T10:52:51.957Z,7560.00
2019-03-27T10:53:51.997Z,7484.00
2019-03-27T10:54:51.937Z,7432.00
2019-03-27T10:55:51.928Z,7476.00
2019-03-27T10:56:51.949Z,7644.00
2019-03-27T10:57:51.908Z,5836.00
2019-03-27T10:58:51.892Z,7468.00
2019-03-27T10:59:51.878Z,7580.00
2019-03-27T11:00:51.917Z,7300.00
2019-03-27T11:01:51.888Z,5132.00
2019-03-27T11:02:51.956Z,7056.00
2019-03-27T11:03:51.833Z,5336.00
2019-03-27T11:04:51.821Z,8704.00
2019-03-27T11:05:51.812Z,5576.00
2019-03-27T11:06:51.854Z,5336.00
2019-03-27T11:07:51.797Z,6328.00
2019-03-27T11:08:51.778Z,7832.00
2019-03-27T11:09:51.775Z,7824.00
2019-03-27T11:10:51.839Z,4564.00
2019-03-27T11:11:51.746Z,7344.00
2019-03-27T11:12:51.757Z,6144.00
2019-03-27T11:13:51.731Z,6452.00
2019-03-27T11:14:51.710Z,4592.00
2019-03-27T11:15:51.715Z,4092.00
2019-03-27T11:16:51.766Z,3692.00
2019-03-27T11:17:51.677Z,3588.00
2019-03-27T11:18:51.672Z,3616.00
2019-03-27T11:19:51.652Z,3664.00
2019-03-27T11:20:51.667Z,3872.00
2019-03-27T11:21:51.635Z,3756.00
2019-03-27T11:22:51.619Z,3924.00
2019-03-27T11:23:51.614Z,5896.00
2019-03-27T11:24:51.596Z,6404.00
2019-03-27T11:25:51.617Z,3804.00
2019-03-27T11:26:51.577Z,3772.00
2019-03-27T11:27:51.599Z,3864.00
2019-03-27T11:28:51.580Z,4024.00
2019-03-27T11:29:51.543Z,4256.00
2019-03-27T11:30:51.539Z,4596.00
2019-03-27T11:31:51.526Z,5032.00
2019-03-27T11:32:51.528Z,6324.00
2019-03-27T11:33:51.531Z,7236.00
2019-03-27T11:34:51.482Z,7272.00
2019-03-27T11:35:51.948Z,7580.00
2019-03-27T11:36:51.478Z,8220.00
2019-03-27T11:37:51.453Z,7572.00
2019-03-27T11:38:51.466Z,8628.00
2019-03-27T11:39:51.429Z,8792.00
2019-03-27T11:40:51.421Z,9212.00
2019-03-27T11:41:51.406Z,9300.00
2019-03-27T11:42:51.440Z,9004.00
2019-03-27T11:43:55.097Z,8468.00
2019-03-27T11:44:51.371Z,7068.00
2019-03-27T11:45:51.365Z,6920.00
2019-03-27T11:46:51.356Z,6936.00
2019-03-27T11:47:51.364Z,7012.00
2019-03-27T11:48:51.327Z,8912.00
2019-03-27T11:49:51.316Z,7228.00
2019-03-27T11:50:51.303Z,7364.00
2019-03-27T11:51:51.317Z,7816.00
2019-03-27T11:52:51.290Z,7764.00
2019-03-27T11:53:51.279Z,8004.00
2019-03-27T11:54:51.255Z,8196.00
2019-03-27T11:55:51.249Z,7448.00
2019-03-27T11:56:51.281Z,6860.00
2019-03-27T11:57:51.227Z,6776.00
2019-03-27T11:58:51.264Z,7088.00
2019-03-27T11:59:54.254Z,6972.00
2019-03-27T12:00:54.985Z,7444.00
2019-03-27T12:01:51.211Z,8176.00
2019-03-27T12:02:51.207Z,7776.00
2019-03-27T12:03:51.157Z,9372.00
2019-03-27T12:04:51.148Z,7356.00
2019-03-27T12:05:51.162Z,8104.00
2019-03-27T12:06:51.136Z,7656.00
2019-03-27T12:07:51.114Z,8548.00
2019-03-27T12:08:51.179Z,9124.00
2019-03-27T12:09:51.124Z,9032.00
2019-03-27T12:10:51.087Z,9300.00
2019-03-27T12:11:51.068Z,8944.00
2019-03-27T12:12:51.083Z,9200.00
2019-03-27T12:13:51.061Z,10324.00
2019-03-27T12:14:51.096Z,8608.00
2019-03-27T12:15:51.056Z,9676.00
2019-03-27T12:16:51.026Z,9568.00
2019-03-27T12:17:51.003Z,9660.00
2019-03-27T12:18:51.028Z,9824.00
2019-03-27T12:19:51.001Z,10400.00
2019-03-27T12:20:59.013Z,10064.00
2019-03-27T12:21:54.629Z,9760.00
2019-03-27T12:22:57.604Z,8116.00
2019-03-27T12:23:51.958Z,7428.00
2019-03-27T12:24:50.958Z,7736.00
2019-03-27T12:25:50.918Z,7184.00
2019-03-27T12:26:50.896Z,7248.00
2019-03-27T12:27:50.891Z,7308.00
2019-03-27T12:28:50.903Z,7368.00
2019-03-27T12:29:50.984Z,7264.00
2019-03-27T12:30:50.856Z,7160.00
2019-03-27T12:31:50.843Z,7080.00
2019-03-27T12:32:50.858Z,6948.00
2019-03-27T12:33:50.823Z,6900.00
2019-03-27T12:34:50.809Z,6796.00
2019-03-27T12:35:50.795Z,6696.00